Time;durP1;ratioP1;P1;durP2;ratioP2;P2;SDS_P1;SDS_P2;PMS_P1;PMS_P2;Temp;Humidity;BMP_temperature;BMP_pressure;BME280_temperature;BME280_humidity;BME280_pressure;Samples;Min_cycle;Max_cycle;Signal;HPM_P1;HPM_P2
2022/10/05 00:00:53;;;;;;;2.97;2.00;;;;;;;15.21;87.81;100974.28;4982025;28;20069;-67
2022/10/05 00:03:21;;;;;;;5.03;2.28;;;;;;;15.17;88.42;100973.47;4981777;28;20035;-68
2022/10/05 00:05:47;;;;;;;4.25;2.20;;;;;;;15.08;88.35;100976.50;4983899;28;20288;-69
2022/10/05 00:08:14;;;;;;;4.85;2.03;;;;;;;15.02;88.97;100974.53;4980914;28;20483;-67
2022/10/05 00:10:41;;;;;;;2.97;1.77;;;;;;;15.07;89.22;100971.47;4984856;28;20038;-67
2022/10/05 00:13:15;;;;;;;4.53;2.05;;;;;;;15.15;88.65;100973.88;4982198;28;20045;-67
2022/10/05 00:15:42;;;;;;;4.18;2.17;;;;;;;15.15;88.53;100971.16;4979507;28;20105;-67
2022/10/05 00:18:18;;;;;;;3.35;1.73;;;;;;;15.26;88.37;100971.19;4979382;28;20026;-67
2022/10/05 00:20:45;;;;;;;3.58;2.33;;;;;;;14.98;88.71;100969.06;4984181;28;20042;-68
2022/10/05 00:23:20;;;;;;;6.25;2.33;;;;;;;15.13;89.19;100967.25;4985627;28;20451;-67
2022/10/05 00:25:45;;;;;;;4.93;2.53;;;;;;;15.10;88.80;100985.06;4982963;28;20053;-67
2022/10/05 00:28:25;;;;;;;3.92;1.77;;;;;;;15.19;88.53;100976.59;4980193;28;20117;-66
2022/10/05 00:30:54;;;;;;;3.80;1.90;;;;;;;15.17;88.59;100978.91;4979467;28;20039;-66
2022/10/05 00:33:19;;;;;;;4.20;2.10;;;;;;;15.18;88.49;100975.03;4978334;28;20074;-68
2022/10/05 00:35:45;;;;;;;5.97;2.33;;;;;;;15.05;88.78;100973.78;4982943;28;20073;-66
2022/10/05 00:38:10;;;;;;;3.25;1.65;;;;;;;14.97;89.35;100969.44;5000720;28;20027;-66
2022/10/05 00:41:09;;;;;;;4.53;1.88;;;;;;;14.91;89.29;100971.75;4986257;28;20118;-66
2022/10/05 00:44:01;;;;;;;3.75;2.10;;;;;;;15.05;89.49;100966.44;4977916;28;20393;-68
2022/10/05 00:46:32;;;;;;;;;;;;;;;15.24;88.56;100973.53;4972755;28;20105;-68
2022/10/05 00:49:10;;;;;;;2.72;1.83;;;;;;;15.20;88.60;100968.06;4988719;28;19922;-68
2022/10/05 00:51:36;;;;;;;3.42;1.85;;;;;;;15.21;88.10;100966.16;5012760;22;20106;-67
2022/10/05 00:54:11;;;;;;;5.90;2.28;;;;;;;15.26;88.17;100955.72;4991977;28;20069;-66
2022/10/05 00:56:36;;;;;;;2.85;1.98;;;;;;;15.20;87.65;100957.22;4994827;28;20038;-67
2022/10/05 00:59:23;;;;;;;5.53;2.15;;;;;;;15.16;88.38;100956.41;4987922;28;20049;-67
2022/10/05 01:02:03;;;;;;;3.05;1.77;;;;;;;15.14;88.47;100950.59;4987112;28;20499;-64
2022/10/05 01:04:29;;;;;;;3.53;2.10;;;;;;;15.15;88.50;100963.00;4983288;28;20030;-64
2022/10/05 01:07:20;;;;;;;5.03;2.17;;;;;;;15.16;88.57;100950.19;4987901;28;20030;-66
2022/10/05 01:10:03;;;;;;;2.33;1.30;;;;;;;15.07;88.82;100937.00;4978218;28;20066;-67
2022/10/05 01:12:54;;;;;;;2.65;1.75;;;;;;;15.15;88.35;100944.03;4985092;28;20383;-67
2022/10/05 01:15:33;;;;;;;9.38;2.55;;;;;;;15.19;88.53;100939.38;4986366;28;20034;-67
2022/10/05 01:18:12;;;;;;;4.32;2.05;;;;;;;15.14;88.21;100933.53;4982726;28;20038;-67
2022/10/05 01:20:49;;;;;;;4.20;2.00;;;;;;;15.20;88.36;100919.22;4984007;28;20394;-66
2022/10/05 01:23:42;;;;;;;4.57;1.75;;;;;;;15.26;87.92;100920.44;4988636;28;20093;-67
2022/10/05 01:26:19;;;;;;;2.20;1.77;;;;;;;15.28;88.02;100931.69;4981326;28;20147;-66
2022/10/05 01:29:15;;;;;;;3.25;1.75;;;;;;;15.30;88.54;100926.66;4984971;28;20030;-66
2022/10/05 01:32:04;;;;;;;4.55;2.17;;;;;;;15.22;88.25;100930.50;4999035;28;20093;-66
2022/10/05 01:34:40;;;;;;;3.47;2.03;;;;;;;15.26;87.96;100925.88;4992191;28;20130;-66
2022/10/05 01:37:16;;;;;;;3.15;1.73;;;;;;;15.22;88.40;100927.78;4981573;28;20066;-66
2022/10/05 01:39:54;;;;;;;5.10;2.10;;;;;;;15.29;88.16;100922.38;4980388;28;20042;-66
2022/10/05 01:42:32;;;;;;;4.53;2.03;;;;;;;15.41;87.68;100936.81;4992197;28;20501;-66
2022/10/05 01:45:22;;;;;;;2.50;1.52;;;;;;;15.31;87.65;100906.50;4983643;28;20034;-66
2022/10/05 01:47:56;;;;;;;5.10;2.80;;;;;;;15.26;87.91;100906.06;4982124;28;20042;-66
2022/10/05 01:50:52;;;;;;;5.03;2.42;;;;;;;15.19;88.47;100900.63;4989663;28;20039;-67
2022/10/05 01:53:47;;;;;;;3.33;1.85;;;;;;;15.28;88.39;100892.91;4991679;28;20088;-66
2022/10/05 01:56:38;;;;;;;3.33;1.77;;;;;;;15.43;87.27;100883.69;4983976;28;20039;-66
2022/10/05 01:59:20;;;;;;;3.67;2.45;;;;;;;15.32;87.82;100885.56;4992266;28;20414;-66
2022/10/05 02:02:08;;;;;;;3.65;1.92;;;;;;;15.21;88.29;100882.03;4975346;28;20041;-66
2022/10/05 02:04:40;;;;;;;6.32;2.30;;;;;;;15.07;89.09;100882.72;4981674;28;20636;-66
2022/10/05 02:07:15;;;;;;;6.95;2.20;;;;;;;15.00;89.88;100892.78;4984482;28;20038;-67
2022/10/05 02:09:52;;;;;;;2.67;1.67;;;;;;;15.14;89.77;100896.31;4983572;28;20078;-66
2022/10/05 02:12:23;;;;;;;3.28;1.80;;;;;;;15.13;89.68;100902.13;4995990;28;20033;-67
2022/10/05 02:14:54;;;;;;;4.43;2.20;;;;;;;15.18;89.38;100901.75;4982788;28;20027;-67
2022/10/05 02:17:26;;;;;;;3.20;1.70;;;;;;;15.14;89.55;100903.69;4977315;28;20096;-67
2022/10/05 02:19:58;;;;;;;2.80;1.73;;;;;;;15.15;89.50;100905.25;4982866;28;20517;-66
2022/10/05 02:22:35;;;;;;;3.92;1.88;;;;;;;15.20;89.27;100899.44;4986453;28;20068;-66
2022/10/05 02:25:07;;;;;;;4.40;1.90;;;;;;;15.29;88.83;100892.53;4985151;28;20027;-67
2022/10/05 02:27:52;;;;;;;4.60;1.85;;;;;;;15.30;88.93;100887.88;4978696;28;20023;-66
2022/10/05 02:30:18;;;;;;;2.95;1.90;;;;;;;15.28;88.78;100885.56;4982385;28;20210;-65
2022/10/05 02:32:58;;;;;;;2.72;1.60;;;;;;;15.34;88.47;100896.81;4986511;28;20106;-66
2022/10/05 02:35:24;;;;;;;3.25;1.67;;;;;;;15.32;88.41;100891.78;4981923;28;20042;-66
2022/10/05 02:37:59;;;;;;;2.83;1.85;;;;;;;15.37;88.47;100890.63;4978641;28;20034;-67
2022/10/05 02:40:45;;;;;;;7.68;2.10;;;;;;;15.31;88.68;100884.03;4994334;28;20085;-67
2022/10/05 02:43:25;;;;;;;3.05;2.67;;;;;;;15.29;88.48;100883.63;4987649;28;20038;-66
2022/10/05 02:46:14;;;;;;;4.32;1.60;;;;;;;15.34;88.66;100881.31;4983875;28;20018;-66
2022/10/05 02:48:59;;;;;;;8.02;1.83;;;;;;;15.37;88.25;100880.53;4976036;28;20407;-66
2022/10/05 02:51:33;;;;;;;3.15;1.85;;;;;;;15.36;87.95;100879.00;4990746;28;20118;-66
2022/10/05 02:54:33;;;;;;;2.55;1.63;;;;;;;15.30;88.39;100872.38;4984653;28;20094;-66
2022/10/05 02:57:30;;;;;;;4.32;2.05;;;;;;;15.37;88.24;100879.75;4982159;28;20038;-66
2022/10/05 03:00:07;;;;;;;2.83;1.33;;;;;;;15.45;87.96;100870.53;4989651;28;20070;-67
2022/10/05 03:02:46;;;;;;;3.72;2.00;;;;;;;15.41;88.15;100868.94;4987336;28;20026;-67
2022/10/05 03:05:26;;;;;;;3.00;2.10;;;;;;;15.47;87.96;100856.56;4983143;28;20030;-66
2022/10/05 03:08:01;;;;;;;4.13;1.90;;;;;;;15.45;87.86;100859.66;4987472;28;20076;-67
2022/10/05 03:10:44;;;;;;;7.72;1.90;;;;;;;15.37;87.79;100847.97;4987284;28;20117;-66
2022/10/05 03:13:28;;;;;;;2.78;1.65;;;;;;;15.37;88.24;100845.25;4983709;28;20026;-66
2022/10/05 03:16:21;;;;;;;2.35;1.60;;;;;;;15.42;87.84;100843.38;4980414;28;20030;-66
2022/10/05 03:19:17;;;;;;;3.22;1.88;;;;;;;15.46;88.16;100836.03;4980469;28;20523;-66
2022/10/05 03:21:54;;;;;;;4.65;1.88;;;;;;;15.41;88.22;100842.56;4974644;28;20515;-66
2022/10/05 03:24:38;;;;;;;5.75;1.80;;;;;;;15.39;88.33;100842.94;4986977;28;20042;-67
2022/10/05 03:27:10;;;;;;;3.85;2.30;;;;;;;15.30;88.84;100847.19;4981581;28;20034;-66
2022/10/05 03:29:54;;;;;;;5.43;1.77;;;;;;;15.29;89.00;100856.50;4980456;28;20170;-66
2022/10/05 03:32:42;;;;;;;3.22;1.77;;;;;;;15.44;88.68;100849.19;4975025;28;20570;-67
2022/10/05 03:35:16;;;;;;;2.83;1.63;;;;;;;15.43;88.42;100847.66;4996814;28;20073;-66
2022/10/05 03:37:57;;;;;;;4.80;1.73;;;;;;;15.33;88.96;100840.97;4985691;28;20407;-66
2022/10/05 03:41:00;;;;;;;2.35;1.80;;;;;;;15.28;88.94;100838.63;4983946;28;20030;-66
2022/10/05 03:43:51;;;;;;;3.00;1.90;;;;;;;15.28;88.99;100844.06;4976412;28;20031;-66
2022/10/05 03:46:19;;;;;;;3.53;1.85;;;;;;;15.20;89.41;100820.78;4981358;28;20022;-67
2022/10/05 03:48:50;;;;;;;3.72;1.75;;;;;;;15.23;89.62;100831.63;4978722;28;20447;-66
2022/10/05 03:51:43;;;;;;;3.42;1.50;;;;;;;15.16;89.76;100831.63;4982814;28;20049;-66
2022/10/05 03:54:19;;;;;;;3.70;1.95;;;;;;;15.23;89.69;100831.63;4998926;28;20570;-66
2022/10/05 03:57:05;;;;;;;5.20;1.95;;;;;;;15.25;90.20;100834.00;4981900;28;20031;-66
2022/10/05 03:59:44;;;;;;;2.58;1.63;;;;;;;15.27;89.53;100826.25;4982191;28;20092;-66
2022/10/05 04:02:18;;;;;;;4.47;2.33;;;;;;;15.00;90.98;100822.25;4978509;28;20038;-64
2022/10/05 04:05:11;;;;;;;4.72;1.60;;;;;;;15.13;90.71;100826.19;4988553;28;20034;-64
2022/10/05 04:15:54;;;;;;;3.20;1.75;;;;;;;15.44;89.39;100813.91;4986185;28;20057;-67
2022/10/05 04:18:33;;;;;;;5.00;2.05;;;;;;;15.43;89.45;100815.09;4986173;28;20031;-68
2022/10/05 04:21:06;;;;;;;6.18;1.95;;;;;;;15.45;89.57;100808.09;4976694;28;20031;-66
2022/10/05 04:23:54;;;;;;;6.40;2.22;;;;;;;15.48;89.14;100810.06;4957481;28;20086;-66
2022/10/05 04:26:29;;;;;;;5.63;2.00;;;;;;;15.54;89.42;100805.03;4962042;28;20085;-66
2022/10/05 04:29:04;;;;;;;1.95;1.63;;;;;;;15.65;89.11;100811.25;4963503;28;20030;-66
2022/10/05 04:31:39;;;;;;;2.90;1.52;;;;;;;15.64;88.84;100813.19;4964541;28;20376;-66
2022/10/05 04:34:38;;;;;;;2.67;1.85;;;;;;;15.64;89.01;100817.84;4979815;23;20038;-70
2022/10/05 04:37:12;;;;;;;4.72;2.10;;;;;;;15.54;89.16;100824.03;4986920;28;20210;-70
2022/10/05 04:39:44;;;;;;;5.25;2.25;;;;;;;15.53;89.28;100820.53;4980893;28;20112;-70
2022/10/05 04:42:23;;;;;;;2.78;1.80;;;;;;;15.54;89.50;100824.81;4973752;28;20043;-70
2022/10/05 04:45:11;;;;;;;3.60;2.20;;;;;;;15.58;89.86;100819.38;4988675;28;20141;-70
2022/10/05 04:47:47;;;;;;;5.90;2.22;;;;;;;15.57;89.25;100810.47;4976058;28;20078;-70
2022/10/05 04:50:20;;;;;;;5.60;2.03;;;;;;;15.41;90.16;100799.13;4988549;28;20037;-70
2022/10/05 04:53:13;;;;;;;10.57;1.92;;;;;;;15.48;90.01;100810.06;4984449;28;20039;-70
2022/10/05 04:56:04;;;;;;;2.40;1.65;;;;;;;15.50;90.17;100804.25;4988386;28;20062;-70
2022/10/05 04:58:39;;;;;;;2.95;1.85;;;;;;;15.46;90.09;100790.66;5002957;28;20042;-70
2022/10/05 05:01:43;;;;;;;4.18;2.30;;;;;;;15.44;90.35;100794.91;4991931;28;20061;-71
2022/10/05 05:04:34;;;;;;;2.85;1.70;;;;;;;15.52;90.80;100791.06;4996053;28;20042;-70
2022/10/05 05:07:28;;;;;;;4.05;2.00;;;;;;;15.60;90.26;100795.34;4994935;28;20033;-70
2022/10/05 05:10:24;;;;;;;4.80;2.17;;;;;;;15.60;90.32;100792.63;4987678;28;20355;-71
2022/10/05 05:12:59;;;;;;;4.70;2.13;;;;;;;15.62;90.02;100791.06;4990016;28;20031;-71
2022/10/05 05:15:28;;;;;;;4.00;1.75;;;;;;;15.53;90.72;100792.59;4998414;28;20033;-70
2022/10/05 05:18:19;;;;;;;3.95;2.17;;;;;;;15.61;90.35;100799.59;5000072;28;20065;-71
2022/10/05 05:21:15;;;;;;;5.20;2.33;;;;;;;15.58;90.32;100803.09;5000567;28;20030;-70
2022/10/05 05:23:47;;;;;;;4.90;2.22;;;;;;;15.67;90.30;100789.91;4996738;28;20030;-71
2022/10/05 05:26:18;;;;;;;;;;;;;;;15.57;90.85;100805.03;4989555;28;20030;-70
2022/10/05 05:28:46;;;;;;;6.22;2.10;;;;;;;15.59;90.72;100793.78;4998796;28;20381;-71
2022/10/05 05:31:31;;;;;;;4.28;2.25;;;;;;;15.66;90.79;100801.97;5007405;28;20612;-70
2022/10/05 05:34:21;;;;;;;3.75;1.92;;;;;;;15.67;90.45;100800.78;5007307;28;20511;-70
2022/10/05 05:37:03;;;;;;;4.38;2.30;;;;;;;15.72;90.07;100800.41;4984551;28;20092;-70
2022/10/05 05:39:40;;;;;;;7.55;2.80;;;;;;;15.78;90.32;100791.50;4995575;28;20030;-70
2022/10/05 05:42:43;;;;;;;3.58;2.13;;;;;;;15.82;89.84;100795.00;4994399;28;20042;-69
2022/10/05 05:45:16;;;;;;;5.22;2.75;;;;;;;15.74;90.16;100785.28;5006927;28;20146;-70
2022/10/05 05:47:52;;;;;;;5.15;1.85;;;;;;;15.74;90.74;100788.00;4994984;28;20404;-70
2022/10/05 05:50:43;;;;;;;4.03;2.35;;;;;;;15.77;90.22;100792.66;5007005;28;20033;-70
2022/10/05 05:53:40;;;;;;;4.03;2.50;;;;;;;15.82;90.13;100800.44;4969738;28;20542;-70
2022/10/05 05:56:11;;;;;;;3.47;2.22;;;;;;;15.87;90.07;100794.59;4997625;28;20041;-70
2022/10/05 05:59:07;;;;;;;3.85;2.05;;;;;;;15.92;90.14;100791.50;4987164;28;20487;-70
2022/10/05 06:01:39;;;;;;;3.47;1.92;;;;;;;15.88;89.68;100785.31;4975126;28;20069;-71
2022/10/05 06:04:23;;;;;;;5.05;2.75;;;;;;;15.77;90.38;100781.81;4992300;28;20188;-70
2022/10/05 06:06:52;;;;;;;3.40;2.25;;;;;;;15.83;90.38;100782.19;4985426;28;20402;-70
2022/10/05 06:09:33;;;;;;;6.65;2.78;;;;;;;15.73;90.82;100782.94;4982417;28;20685;-70
2022/10/05 06:12:15;;;;;;;6.00;2.42;;;;;;;15.61;91.64;100780.59;4988689;28;20030;-71
2022/10/05 06:14:54;;;;;;;3.38;2.10;;;;;;;15.64;91.99;100774.41;5005696;28;20092;-69
2022/10/05 06:17:32;;;;;;;4.90;2.75;;;;;;;15.48;92.16;100772.06;4990174;28;20026;-70
2022/10/05 06:20:02;;;;;;;3.83;1.98;;;;;;;15.43;92.61;100777.84;5005620;28;20034;-70
2022/10/05 06:22:35;;;;;;;3.22;2.08;;;;;;;15.45;92.69;100770.09;5001802;28;20113;-71
2022/10/05 06:25:11;;;;;;;5.35;2.40;;;;;;;15.56;92.69;100762.78;4990231;28;20482;-70
2022/10/05 06:27:56;;;;;;;5.32;2.70;;;;;;;15.71;91.63;100767.06;5007019;28;20026;-70
2022/10/05 06:30:22;;;;;;;5.43;2.58;;;;;;;15.78;91.55;100772.47;4986286;28;20088;-71
2022/10/05 06:33:09;;;;;;;5.45;2.08;;;;;;;15.74;91.65;100782.56;5003100;28;20039;-71
2022/10/05 06:36:02;;;;;;;5.22;2.70;;;;;;;15.69;91.88;100785.66;4987928;28;20458;-71
2022/10/05 06:39:03;;;;;;;3.65;2.03;;;;;;;15.74;92.11;100793.41;5002988;28;20034;-70
2022/10/05 06:42:16;;;;;;;4.07;2.50;;;;;;;15.81;91.98;100785.31;4984843;28;20030;-71
2022/10/05 06:45:09;;;;;;;4.10;1.98;;;;;;;15.75;91.88;100792.28;4993077;28;20573;-70
2022/10/05 06:48:00;;;;;;;3.80;2.20;;;;;;;15.90;91.81;100784.91;4988908;28;20042;-70
2022/10/05 06:50:46;;;;;;;4.90;2.40;;;;;;;15.73;92.50;100794.59;5001445;28;20120;-70
2022/10/05 06:53:56;;;;;;;3.78;2.22;;;;;;;15.82;92.60;100786.84;5003784;28;20414;-70
2022/10/05 06:56:48;;;;;;;6.03;2.25;;;;;;;15.75;92.41;100777.91;5003946;28;20091;-71
2022/10/05 06:59:26;;;;;;;4.90;2.33;;;;;;;15.77;92.64;100768.22;4992361;28;20061;-69
2022/10/05 07:02:14;;;;;;;5.63;2.58;;;;;;;15.81;92.65;100784.53;4992719;28;20146;-70
2022/10/05 07:04:47;;;;;;;7.22;2.40;;;;;;;15.87;92.72;100772.88;4977162;28;20508;-71
2022/10/05 07:07:16;;;;;;;5.68;2.40;;;;;;;16.05;91.64;100779.09;4984936;28;20034;-69
2022/10/05 07:09:59;;;;;;;4.57;2.28;;;;;;;16.02;91.64;100774.44;5000444;28;20114;-69
2022/10/05 07:12:26;;;;;;;4.18;1.90;;;;;;;15.89;91.58;100765.09;5004726;28;20030;-70
2022/10/05 07:15:03;;;;;;;5.05;2.38;;;;;;;15.83;92.83;100772.09;4985554;28;20038;-69
2022/10/05 07:17:45;;;;;;;5.70;2.45;;;;;;;15.84;92.35;100773.66;4991152;28;20031;-69
2022/10/05 07:20:15;;;;;;;4.03;1.98;;;;;;;15.88;92.55;100779.09;4985699;28;20073;-70
2022/10/05 07:23:07;;;;;;;4.68;2.15;;;;;;;16.00;92.70;100782.22;4994055;28;20128;-70
2022/10/05 07:25:49;;;;;;;2.72;1.75;;;;;;;16.06;92.54;100772.50;5005805;28;20065;-70
2022/10/05 07:28:36;;;;;;;6.47;2.35;;;;;;;16.15;91.66;100762.00;5004006;28;20049;-69
2022/10/05 07:31:31;;;;;;;9.88;2.00;;;;;;;16.32;91.46;100760.44;4997935;28;20070;-69
2022/10/05 07:34:17;;;;;;;5.40;2.17;;;;;;;16.24;91.20;100754.22;4983540;28;20120;-67
2022/10/05 07:40:05;;;;;;;4.07;2.40;;;;;;;16.33;91.49;100758.50;5000632;28;20476;-68
2022/10/05 07:42:58;;;;;;;3.47;1.92;;;;;;;16.26;91.72;100781.81;5004572;28;20395;-68
2022/10/05 07:45:28;;;;;;;3.75;2.10;;;;;;;16.34;91.22;100771.69;5005207;28;20042;-68
2022/10/05 07:47:57;;;;;;;3.22;2.30;;;;;;;16.37;91.06;100770.94;5001672;28;20109;-68
2022/10/05 07:50:27;;;;;;;4.95;2.03;;;;;;;16.39;91.50;100765.09;5004046;28;20049;-68
2022/10/05 07:53:11;;;;;;;6.28;2.00;;;;;;;16.39;91.33;100765.88;4992866;28;20427;-69
2022/10/05 07:55:46;;;;;;;5.22;1.88;;;;;;;16.50;91.32;100776.75;4999783;28;20030;-67
2022/10/05 07:58:28;;;;;;;5.18;1.80;;;;;;;16.54;90.89;100763.94;5000155;28;20030;-68
2022/10/05 08:01:06;;;;;;;4.18;2.25;;;;;;;16.55;91.32;100776.38;4999732;28;20038;-69
2022/10/05 08:03:55;;;;;;;2.92;1.95;;;;;;;16.54;91.07;100780.25;4987337;28;20030;-70
2022/10/05 08:06:39;;;;;;;2.72;1.75;;;;;;;16.65;90.42;100775.53;4989848;28;20459;-68
2022/10/05 08:09:30;;;;;;;6.53;2.08;;;;;;;16.64;90.89;100779.44;4990591;28;20104;-68
2022/10/05 08:12:10;;;;;;;3.67;1.53;;;;;;;16.65;90.42;100783.69;4986219;28;20561;-69
2022/10/05 08:14:44;;;;;;;3.70;2.07;;;;;;;16.65;90.83;100787.22;4988265;28;20100;-68
2022/10/05 08:17:34;;;;;;;4.65;1.65;;;;;;;16.69;90.55;100779.81;4990373;28;20042;-68
2022/10/05 08:20:32;;;;;;;3.45;1.70;;;;;;;16.58;91.77;100787.22;4990167;28;20040;-70
2022/10/05 08:23:16;;;;;;;2.10;1.48;;;;;;;16.72;91.36;100778.25;4981879;28;20046;-69
2022/10/05 08:25:48;;;;;;;3.92;2.00;;;;;;;16.70;90.79;100780.59;4991273;28;20034;-69
2022/10/05 08:28:23;;;;;;;3.25;1.77;;;;;;;16.83;90.70;100777.06;4987270;28;20069;-69
2022/10/05 08:30:55;;;;;;;5.07;1.55;;;;;;;16.65;91.51;100779.03;4985116;28;20034;-68
2022/10/05 08:33:23;;;;;;;5.25;2.40;;;;;;;16.87;90.96;100772.38;4989555;28;20042;-68
2022/10/05 08:35:59;;;;;;;6.78;1.77;;;;;;;17.05;90.24;100781.25;4987018;28;20031;-69
2022/10/05 08:38:30;;;;;;;3.60;1.67;;;;;;;17.15;90.28;100776.91;4990307;28;20111;-69
2022/10/05 08:41:12;;;;;;;3.85;1.88;;;;;;;17.13;89.76;100779.25;4989974;28;20395;-68
2022/10/05 08:44:14;;;;;;;4.07;1.77;;;;;;;17.24;89.47;100779.22;4981082;28;20053;-69
2022/10/05 08:46:52;;;;;;;3.30;1.90;;;;;;;17.35;89.70;100778.00;4987445;28;20034;-69
2022/10/05 08:49:55;;;;;;;5.65;2.13;;;;;;;17.29;88.19;100779.59;4990349;28;20046;-68
2022/10/05 08:52:35;;;;;;;2.60;1.77;;;;;;;17.40;88.51;100791.19;4990930;28;20060;-69
2022/10/05 08:55:13;;;;;;;4.05;1.95;;;;;;;17.28;89.08;100788.16;4989284;28;20065;-68
2022/10/05 08:57:45;;;;;;;6.50;2.22;;;;;;;17.21;88.95;100793.66;4990972;28;20137;-68
2022/10/05 09:00:17;;;;;;;2.97;1.63;;;;;;;17.25;88.50;100788.97;4987455;28;20081;-70
2022/10/05 09:03:08;;;;;;;2.75;1.88;;;;;;;17.38;88.12;100790.06;4984103;28;20030;-69
2022/10/05 09:06:09;;;;;;;4.53;2.22;;;;;;;17.53;87.88;100789.63;4989648;28;20034;-69
2022/10/05 09:08:52;;;;;;;5.10;2.30;;;;;;;17.58;87.92;100791.91;4990690;28;20066;-68
2022/10/05 09:11:30;;;;;;;3.85;1.88;;;;;;;17.67;87.28;100788.75;4989287;28;20038;-67
2022/10/05 09:14:24;;;;;;;3.72;1.48;;;;;;;17.61;87.50;100790.34;4989986;28;20403;-68
2022/10/05 09:16:54;;;;;;;7.88;1.58;;;;;;;17.57;88.50;100784.91;4985126;28;20124;-68
2022/10/05 09:19:22;;;;;;;2.73;1.70;;;;;;;17.57;87.10;100782.19;4991899;28;20058;-67
2022/10/05 09:21:47;;;;;;;3.25;1.95;;;;;;;17.61;86.65;100782.16;4993521;28;20289;-68
2022/10/05 09:24:13;;;;;;;4.47;2.08;;;;;;;17.71;86.33;100782.09;4989385;28;20502;-68
2022/10/05 09:27:01;;;;;;;2.60;1.38;;;;;;;17.64;85.91;100784.88;4986883;28;20033;-68
2022/10/05 09:30:10;;;;;;;5.78;1.70;;;;;;;17.60;85.88;100784.09;4986572;28;20030;-68
2022/10/05 09:32:56;;;;;;;4.15;1.98;;;;;;;17.68;86.23;100785.63;4991033;28;20038;-68
2022/10/05 09:35:46;;;;;;;3.92;1.70;;;;;;;17.70;86.21;100783.28;4985744;28;20402;-69
2022/10/05 09:38:17;;;;;;;4.00;1.90;;;;;;;17.75;85.74;100787.53;4988200;28;20046;-68
2022/10/05 09:40:57;;;;;;;3.88;1.67;;;;;;;17.79;85.35;100774.63;5002775;28;20038;-69
2022/10/05 09:43:32;;;;;;;3.00;1.63;;;;;;;17.95;84.95;100772.97;4995789;28;20061;-68
2022/10/05 09:46:02;;;;;;;2.38;1.52;;;;;;;17.92;84.74;100783.91;4994143;28;20506;-69
2022/10/05 09:49:06;;;;;;;2.10;1.50;;;;;;;17.88;85.25;100775.75;4996658;28;20071;-69
2022/10/05 09:52:05;;;;;;;2.80;1.70;;;;;;;17.85;84.61;100768.38;4996443;28;20034;-70
2022/10/05 09:54:51;;;;;;;2.42;1.27;;;;;;;17.93;84.59;100764.41;4999317;28;20430;-70
2022/10/05 09:57:38;;;;;;;2.50;1.58;;;;;;;18.04;84.32;100750.69;4993240;28;20072;-69
2022/10/05 10:00:20;;;;;;;2.50;1.50;;;;;;;18.16;84.11;100760.31;4993068;28;20493;-70
2022/10/05 10:03:12;;;;;;;1.98;1.45;;;;;;;18.19;84.26;100752.13;4994088;28;20022;-69
2022/10/05 10:05:53;;;;;;;3.55;1.55;;;;;;;18.18;83.88;100755.22;4987778;28;20077;-68
2022/10/05 10:08:34;;;;;;;;;;;;;;;18.27;83.77;100747.38;4987306;28;20137;-69
2022/10/05 10:11:33;;;;;;;4.25;1.70;;;;;;;18.30;82.50;100754.75;4990382;28;20012;-68
2022/10/05 10:14:14;;;;;;;3.75;1.63;;;;;;;18.14;83.27;100743.63;4986664;28;20205;-70
2022/10/05 10:17:19;;;;;;;2.45;1.05;;;;;;;18.06;83.80;100737.44;4990304;28;20118;-68
2022/10/05 10:20:14;;;;;;;2.58;1.60;;;;;;;18.21;83.66;100746.25;4979704;28;20050;-69
2022/10/05 10:22:52;;;;;;;3.30;1.70;;;;;;;18.29;82.25;100734.88;5002002;28;20451;-68
2022/10/05 10:25:43;;;;;;;2.30;1.45;;;;;;;18.27;81.91;100739.19;4993323;28;20467;-69
2022/10/05 10:28:24;;;;;;;2.00;1.33;;;;;;;18.23;82.18;100733.00;4995234;28;20074;-69
2022/10/05 10:31:13;;;;;;;2.13;1.30;;;;;;;18.32;81.46;100727.84;4988906;28;20418;-69
2022/10/05 10:33:56;;;;;;;2.33;1.40;;;;;;;18.33;81.64;100737.59;4985142;28;20387;-68
2022/10/05 10:36:50;;;;;;;2.78;1.30;;;;;;;18.43;81.87;100736.72;4980624;28;20483;-68
2022/10/05 10:39:22;;;;;;;2.97;1.50;;;;;;;18.43;81.70;100742.16;4990533;28;20026;-68
2022/10/05 10:42:12;;;;;;;2.75;1.67;;;;;;;18.39;79.74;100735.97;4995566;28;20495;-69
2022/10/05 10:44:53;;;;;;;2.50;1.70;;;;;;;18.35;79.92;100735.97;4995266;28;20034;-69
2022/10/05 10:47:38;;;;;;;2.17;1.50;;;;;;;18.38;80.50;100739.88;4993827;28;20026;-68
2022/10/05 10:50:46;;;;;;;3.33;1.60;;;;;;;18.33;81.81;100738.34;4988521;28;20061;-68
2022/10/05 10:53:33;;;;;;;2.83;2.08;;;;;;;18.46;80.11;100742.16;4987736;28;20482;-68
2022/10/05 10:56:17;;;;;;;2.72;1.70;;;;;;;18.28;81.00;100746.19;4990548;28;20064;-69
2022/10/05 10:59:01;;;;;;;4.68;2.10;;;;;;;18.24;80.53;100751.69;4996335;28;20096;-69
2022/10/05 11:01:33;;;;;;;5.65;1.90;;;;;;;18.09;82.42;100739.38;4993576;28;20030;-68
2022/10/05 11:04:17;;;;;;;3.38;1.70;;;;;;;18.20;81.34;100739.25;4982817;28;20034;-70
2022/10/05 11:07:10;;;;;;;2.75;1.95;;;;;;;18.17;80.73;100742.78;5007699;28;20033;-68
2022/10/05 11:09:38;;;;;;;4.43;2.00;;;;;;;18.22;81.13;100728.72;4992529;28;20080;-68
2022/10/05 11:12:25;;;;;;;2.00;1.48;;;;;;;18.26;79.94;100732.19;4997007;28;20030;-68
2022/10/05 11:15:05;;;;;;;2.85;2.20;;;;;;;18.32;79.25;100727.84;4994859;28;20046;-68
2022/10/05 11:17:56;;;;;;;2.78;2.08;;;;;;;18.37;78.82;100733.63;4980065;28;20034;-70
2022/10/05 11:20:51;;;;;;;3.33;1.83;;;;;;;18.42;79.00;100730.50;4989459;28;20049;-68
2022/10/05 11:23:32;;;;;;;3.70;2.30;;;;;;;18.46;77.69;100725.00;4980036;28;20069;-69
2022/10/05 11:26:05;;;;;;;3.58;2.10;;;;;;;18.41;78.25;100725.41;4979977;28;20076;-69
2022/10/05 11:28:51;;;;;;;5.40;2.50;;;;;;;18.46;78.01;100722.28;4996514;28;20520;-69
2022/10/05 11:31:35;;;;;;;3.15;1.83;;;;;;;18.34;78.50;100720.81;4992349;28;20034;-68
2022/10/05 11:34:19;;;;;;;3.00;2.15;;;;;;;18.28;78.99;100716.19;4982739;28;20104;-69
2022/10/05 11:36:54;;;;;;;2.67;1.98;;;;;;;18.36;78.84;100707.53;4996219;28;20050;-70
2022/10/05 11:39:32;;;;;;;4.53;2.03;;;;;;;18.11;80.04;100717.16;4992384;28;20048;-69
2022/10/05 11:42:17;;;;;;;2.88;1.83;;;;;;;18.25;79.76;100709.63;4988224;28;20100;-70
2022/10/05 11:45:20;;;;;;;4.47;2.20;;;;;;;18.44;79.40;100700.09;4987479;28;20046;-71
2022/10/05 11:47:59;;;;;;;3.53;2.28;;;;;;;18.54;78.81;100710.13;4984263;28;20038;-70
2022/10/05 11:50:34;;;;;;;3.80;1.98;;;;;;;18.38;79.50;100697.00;4989271;28;20073;-70
2022/10/05 11:53:10;;;;;;;4.28;1.95;;;;;;;18.31;78.07;100702.53;4985428;28;20045;-70
2022/10/05 11:55:47;;;;;;;4.60;2.25;;;;;;;18.21;76.69;100695.25;4984468;28;20042;-70
2022/10/05 11:58:23;;;;;;;1.58;1.48;;;;;;;18.35;76.29;100684.16;4992810;28;20495;-69
2022/10/05 12:01:00;;;;;;;2.03;1.67;;;;;;;18.24;76.73;100683.50;4985395;28;20574;-69
2022/10/05 12:03:42;;;;;;;2.67;1.70;;;;;;;18.49;76.88;100680.53;4985271;28;20061;-69
2022/10/05 12:06:28;;;;;;;1.90;1.55;;;;;;;18.65;76.19;100678.00;4982596;28;20038;-70
2022/10/05 12:08:59;;;;;;;1.98;1.65;;;;;;;18.76;76.38;100676.69;4984219;28;20049;-70
2022/10/05 12:11:32;;;;;;;;;;;;;;;18.91;76.56;100680.03;4979391;28;20505;-70
2022/10/05 12:14:06;;;;;;;3.60;1.83;;;;;;;18.78;76.71;100679.78;4990197;28;19917;-73
2022/10/05 12:16:37;;;;;;;2.13;1.85;;;;;;;18.81;76.50;100670.03;4987136;28;20373;-69
2022/10/05 12:19:28;;;;;;;4.05;1.90;;;;;;;18.95;75.51;100658.91;4987619;28;20046;-70
2022/10/05 12:22:02;;;;;;;3.08;1.90;;;;;;;18.97;74.41;100667.44;4982870;28;20030;-69
2022/10/05 12:24:34;;;;;;;2.47;1.85;;;;;;;18.97;75.10;100659.25;4989958;28;20044;-71
2022/10/05 12:27:19;;;;;;;1.92;1.50;;;;;;;19.09;74.84;100652.47;4990365;28;20050;-70
2022/10/05 12:29:59;;;;;;;1.90;1.70;;;;;;;19.11;74.04;100650.88;4982717;28;20494;-70
2022/10/05 12:32:40;;;;;;;3.50;2.03;;;;;;;19.14;74.69;100654.75;4988671;28;20487;-70
2022/10/05 12:35:21;;;;;;;5.82;1.90;;;;;;;19.24;74.70;100653.81;4989676;28;20040;-70
2022/10/05 12:37:52;;;;;;;2.72;1.73;;;;;;;19.15;74.39;100646.13;4983409;28;20038;-70
2022/10/05 12:40:25;;;;;;;1.92;1.60;;;;;;;19.34;73.96;100652.88;4984228;28;20041;-70
2022/10/05 12:43:03;;;;;;;3.47;1.40;;;;;;;19.51;73.56;100643.66;4994688;28;20507;-71